札幌/千歳 の空港の天気 - METARとTAF

新千歳空港 ( RJCC / CTS ) - 北海道千歳市 (札幌市近郊)
飛行場実況気象(Metar)
観測時間07/22 09:30 JST (07/22 00:30 UTC)
風向・風速北 4m/s
視程7000m
天気現象弱いしゅう雨
少しの雲 雲底高度 60m
全天の4割程度の雲 雲底高度 150m
全天の8割程度の雲 雲底高度 180m
気温20℃
湿度100%
気圧1009hPa
METARRJCC 220030Z 01007KT 7000 -SHRA FEW002 SCT005 BKN006 20/20 Q1009 RMK 1ST002 3ST005 5ST006 A2982
過去の天気等 Google飛行場航空写真 Wunderground天気予報

過去48時間のMETAR

飛行場予報(TAF)
発表時間: 7/22 08:05 JST (7/21 23:05 UTC)
予報対象時間: 22日9時 JST ~ 23日15時 JST
風向・風速北 7m/s
視程10km以上
少しの雲 雲底高度 240m
全天の8割程度の雲 雲底高度 460m
22日9時 JST ~ 22日12時 JST に一時的に
視程4,000m
天気現象弱いしゅう雨 もや
少しの雲 雲底高度 150m
全天の8割程度の雲 雲底高度 240m
23日6時 JST ~ 23日9時 JST に徐々に
風向・風速南 7m/s
23日6時 JST ~ 23日9時 JST に一時的に
少しの雲 雲底高度 150m
全天の8割程度の雲 雲底高度 240m
TAF RJCC 212305Z 2200/2306 35013KT 9999 FEW008 BKN015
TEMPO 2200/2203 4000 -SHRA BR FEW005 BKN008
BECMG 2221/2300 17013KT
TEMPO 2221/2300 FEW005 BKN008
日本の空港のMETAR・TAFへのリンク

RJTT 東京国際空港
RJAA 新東京国際空港
RJBB 関西国際空港
RJOO 大阪空港
RJGG 中部国際空港
RJCC 新千歳空港
RJFF 福岡空港
ROAH 那覇空港


RJEC 旭川空港
RJCH 函館空港
RJCK 釧路空港
RJCM 女満別空港
RJCB 帯広空港
RJSA 青森空港
RJSS 仙台空港
RJSK 秋田空港
RJSF 福島空港
RJAH 茨城空港
RJSN 新潟空港
RJNT 富山空港
RJNK 小松飛行場
RJNS 静岡空港
RJOH 美保飛行場
RJOC 出雲空港
RJOB 岡山空港
RJOA 広島空港
RJOI 岩国飛行場
RJOT 高松空港
RJOM 松山空港
RJOK 高知空港
RJFR 北九州空港
RJFT 熊本空港
RJFU 長崎空港
RJFS 佐賀空港
RJFO 大分空港
RJFM 宮崎空港
RJFK 鹿児島空港
ROIG 石垣島空港
RJTY 横田飛行場
ROTM 普天間飛行場
RODN 嘉手納飛行場